Time;durP1;ratioP1;P1;durP2;ratioP2;P2;SDS_P1;SDS_P2;PMS_P1;PMS_P2;Temp;Humidity;BMP_temperature;BMP_pressure;BME280_temperature;BME280_humidity;BME280_pressure;Samples;Min_cycle;Max_cycle;Signal;HPM_P1;HPM_P2
2023/12/15 05:03:28;;;;;;;20.27;13.52;;;;;;;8.73;90.36;101124.66;5605248;31;79926;-55
2023/12/15 05:06:31;;;;;;;17.92;12.48;;;;;;;8.73;90.36;101124.66;5583358;32;33358;-56
2023/12/15 05:09:34;;;;;;;17.50;12.68;;;;;;;8.46;100.00;101130.75;5566729;32;33572;-56
2023/12/15 05:12:37;;;;;;;16.05;10.65;;;;;;;8.39;87.50;101130.12;5563928;32;33845;-56
2023/12/15 05:15:39;;;;;;;16.73;12.68;;;;;;;8.45;96.74;101139.81;5563694;32;33551;-56
2023/12/15 05:18:41;;;;;;;18.92;12.73;;;;;;;8.64;100.00;101142.97;5563863;32;33740;-56
2023/12/15 05:21:44;;;;;;;16.10;12.10;;;;;;;8.77;100.00;101147.94;5563807;32;33532;-56
2023/12/15 05:24:46;;;;;;;19.35;13.48;;;;;;;8.89;100.00;101159.34;5563969;32;34306;-56
2023/12/15 05:27:49;;;;;;;17.95;13.05;;;;;;;9.02;100.00;101162.69;5563851;32;33570;-56
2023/12/15 05:30:51;;;;;;;17.33;13.00;;;;;;;9.10;96.41;101164.91;5563739;32;34019;-56
2023/12/15 05:33:54;;;;;;;18.45;13.30;;;;;;;8.98;100.00;101172.28;5563771;32;33644;-56
2023/12/15 05:36:56;;;;;;;16.05;12.57;;;;;;;8.84;94.70;101177.19;5563462;32;33715;-56
2023/12/15 05:39:59;;;;;;;16.48;11.88;;;;;;;8.84;90.47;101186.03;5563831;32;33569;-57
2023/12/15 05:43:01;;;;;;;16.45;12.05;;;;;;;8.74;86.91;101185.06;5563646;32;33641;-57
2023/12/15 05:46:04;;;;;;;16.45;11.88;;;;;;;8.66;87.42;101197.00;5563973;32;34444;-56
2023/12/15 05:49:06;;;;;;;15.68;11.18;;;;;;;8.65;83.16;101203.41;5563779;32;34352;-56
2023/12/15 05:52:09;;;;;;;16.77;11.43;;;;;;;8.68;96.57;101216.28;5563725;32;33214;-57
2023/12/15 05:55:12;;;;;;;16.62;11.15;;;;;;;8.53;89.91;101216.87;5563380;32;34260;-56
2023/12/15 05:58:14;;;;;;;13.82;10.77;;;;;;;8.57;100.00;101219.87;5563523;32;33195;-56
2023/12/15 06:01:17;;;;;;;14.00;10.93;;;;;;;8.60;90.44;101222.03;5563451;32;33201;-56
2023/12/15 06:04:20;;;;;;;12.88;9.82;;;;;;;8.58;96.87;101222.31;5564544;32;33692;-56
2023/12/15 06:07:22;;;;;;;13.77;10.23;;;;;;;8.84;95.74;101220.78;5577048;31;33825;-56
2023/12/15 06:10:24;;;;;;;13.65;9.70;;;;;;;8.90;90.44;101224.31;5568549;32;33694;-56
2023/12/15 06:13:26;;;;;;;13.52;10.05;;;;;;;8.98;95.50;101237.28;5556713;32;33637;-56
2023/12/15 06:16:29;;;;;;;14.90;10.10;;;;;;;8.93;87.67;101239.88;5567838;32;34177;-56
2023/12/15 06:19:32;;;;;;;12.88;9.60;;;;;;;8.89;89.03;101241.44;5550960;32;33720;-57
2023/12/15 06:22:35;;;;;;;13.75;10.13;;;;;;;8.98;96.14;101257.88;5567798;32;33574;-56
2023/12/15 06:25:37;;;;;;;11.70;8.63;;;;;;;8.90;93.42;101259.06;5569712;32;33935;-56
2023/12/15 06:28:39;;;;;;;13.18;8.35;;;;;;;8.65;81.42;101255.00;5560424;32;33651;-56
2023/12/15 06:31:45;;;;;;;11.75;9.13;;;;;;;8.78;83.09;101266.41;5550169;32;33721;-56
2023/12/15 06:34:48;;;;;;;12.93;8.80;;;;;;;8.60;82.21;101270.97;5549787;32;33738;-56
2023/12/15 06:37:50;;;;;;;12.48;9.13;;;;;;;8.71;81.54;101274.63;5552933;32;33705;-56
2023/12/15 06:40:53;;;;;;;11.02;8.13;;;;;;;8.68;83.89;101285.78;5558745;32;34321;-56
2023/12/15 06:43:55;;;;;;;11.93;8.55;;;;;;;8.63;83.96;101283.03;5558426;32;33729;-56
2023/12/15 06:46:58;;;;;;;11.50;8.07;;;;;;;8.47;82.05;101285.47;5559698;32;33591;-56
2023/12/15 06:50:00;;;;;;;12.02;8.35;;;;;;;8.47;87.58;101298.03;5553996;32;33666;-56
2023/12/15 06:53:03;;;;;;;12.37;9.02;;;;;;;8.50;82.88;101297.53;5565520;32;33576;-56
2023/12/15 06:56:06;;;;;;;13.02;8.73;;;;;;;8.31;81.34;101310.31;5561723;32;33614;-56
2023/12/15 06:59:08;;;;;;;13.13;8.52;;;;;;;8.08;81.78;101321.09;5568955;32;33658;-57
2023/12/15 07:02:10;;;;;;;11.77;8.25;;;;;;;8.20;83.83;101327.19;5559143;32;33781;-56
2023/12/15 07:05:13;;;;;;;10.40;8.20;;;;;;;8.11;81.99;101334.81;5568956;32;33732;-55
2023/12/15 07:08:15;;;;;;;10.43;8.20;;;;;;;8.18;88.18;101342.69;5568990;32;33664;-55
2023/12/15 07:11:18;;;;;;;11.25;8.07;;;;;;;8.20;84.39;101348.56;5564608;32;33269;-56
2023/12/15 07:14:21;;;;;;;11.38;7.90;;;;;;;8.36;81.98;101357.66;5555419;32;34313;-56
2023/12/15 07:17:25;;;;;;;9.68;7.03;;;;;;;8.49;81.56;101361.94;5565744;32;33651;-57
2023/12/15 07:20:35;;;;;;;9.55;6.70;;;;;;;8.38;83.88;101369.78;5566060;32;33699;-56
2023/12/15 07:23:38;;;;;;;8.68;6.68;;;;;;;8.42;86.74;101368.22;5566870;32;33566;-56
2023/12/15 07:26:40;;;;;;;9.60;6.85;;;;;;;8.69;87.78;101378.28;5553570;32;32576;-56
2023/12/15 07:29:43;;;;;;;8.68;6.20;;;;;;;8.53;79.93;101385.25;5562918;32;33647;-56
2023/12/15 07:32:45;;;;;;;8.93;6.95;;;;;;;8.40;88.02;101393.56;5555396;32;33136;-56
2023/12/15 07:35:48;;;;;;;9.40;6.47;;;;;;;8.57;80.79;101409.63;5561905;32;34356;-57
2023/12/15 07:38:51;;;;;;;11.05;6.40;;;;;;;8.58;79.67;101419.28;5553132;32;33555;-56
2023/12/15 07:41:53;;;;;;;9.68;6.85;;;;;;;8.55;78.77;101420.56;5566399;32;34337;-56
2023/12/15 07:44:56;;;;;;;7.40;6.00;;;;;;;8.51;76.35;101426.63;5567112;32;34298;-56
2023/12/15 07:47:58;;;;;;;8.52;6.30;;;;;;;8.40;79.37;101434.44;5561317;32;33718;-56
2023/12/15 07:51:01;;;;;;;8.95;6.53;;;;;;;8.36;81.02;101438.62;5566750;32;34215;-56
2023/12/15 07:54:04;;;;;;;9.35;6.40;;;;;;;8.51;86.07;101445.31;5554312;32;33626;-56
2023/12/15 07:57:06;;;;;;;11.18;6.55;;;;;;;8.47;79.86;101455.69;5568545;32;33714;-57
2023/12/15 08:00:12;;;;;;;10.10;6.00;;;;;;;8.29;88.29;101461.19;5567175;32;33520;-56
2023/12/15 08:03:15;;;;;;;9.02;6.03;;;;;;;8.30;79.93;101466.28;5563188;32;34050;-56
2023/12/15 08:06:17;;;;;;;10.18;6.60;;;;;;;8.42;96.94;101474.31;5565220;32;33617;-56
2023/12/15 08:09:20;;;;;;;8.90;7.03;;;;;;;8.49;82.59;101479.50;5562480;32;32577;-56
2023/12/15 08:12:23;;;;;;;8.65;6.28;;;;;;;8.45;87.87;101481.84;5567181;32;33600;-56
2023/12/15 08:15:25;;;;;;;9.02;6.62;;;;;;;8.56;82.37;101486.31;5567306;32;33715;-56
2023/12/15 08:18:27;;;;;;;9.95;6.40;;;;;;;8.80;95.71;101494.22;5555602;32;33706;-56
2023/12/15 08:21:30;;;;;;;9.00;6.22;;;;;;;8.59;85.98;101495.72;5559193;32;33556;-56
2023/12/15 08:24:32;;;;;;;8.45;6.47;;;;;;;8.51;83.32;101504.94;5552718;32;33362;-56
2023/12/15 08:27:37;;;;;;;8.55;6.50;;;;;;;8.55;83.98;101510.63;5562699;32;34532;-56
2023/12/15 08:30:40;;;;;;;8.63;5.87;;;;;;;8.50;82.98;101529.22;5567456;32;34466;-56
2023/12/15 08:33:43;;;;;;;8.73;6.03;;;;;;;8.34;79.13;101534.22;5560641;32;33585;-56
2023/12/15 08:36:45;;;;;;;9.45;6.78;;;;;;;8.55;84.76;101540.84;5549412;32;33654;-56
2023/12/15 08:39:48;;;;;;;9.52;6.15;;;;;;;8.37;80.59;101540.97;5555303;32;34402;-56
2023/12/15 08:42:51;;;;;;;8.52;6.12;;;;;;;8.50;80.75;101540.72;5568505;32;33645;-56
2023/12/15 08:45:54;;;;;;;9.23;6.55;;;;;;;8.45;76.89;101548.66;5562419;32;33517;-56
2023/12/15 08:48:56;;;;;;;8.70;6.25;;;;;;;8.68;94.51;101559.25;5554263;32;34391;-56
2023/12/15 08:51:59;;;;;;;7.85;6.10;;;;;;;8.62;79.22;101554.06;5563115;32;33276;-56
2023/12/15 08:55:01;;;;;;;16.05;6.35;;;;;;;8.62;77.07;101562.87;5548990;32;33652;-55
2023/12/15 08:58:04;;;;;;;11.68;6.10;;;;;;;8.59;79.18;101562.56;5553523;32;33538;-56
2023/12/15 09:01:06;;;;;;;7.93;6.25;;;;;;;8.63;88.75;101569.03;5559901;32;34152;-56
2023/12/15 09:04:09;;;;;;;8.90;6.32;;;;;;;8.70;87.60;101569.69;5551285;32;34265;-55
2023/12/15 09:07:12;;;;;;;9.90;6.20;;;;;;;8.76;85.62;101589.34;5565997;32;33861;-56
2023/12/15 09:10:15;;;;;;;8.90;6.40;;;;;;;8.86;81.66;101594.88;5551661;32;33555;-56
2023/12/15 09:13:17;;;;;;;9.98;6.43;;;;;;;8.91;78.57;101597.66;5561071;32;33580;-56
2023/12/15 09:16:20;;;;;;;8.60;6.50;;;;;;;8.74;77.10;101602.97;5557041;32;33625;-56
2023/12/15 09:19:25;;;;;;;10.00;7.43;;;;;;;8.65;76.80;101602.50;5547926;32;33607;-56
2023/12/15 09:22:28;;;;;;;11.70;6.70;;;;;;;8.67;77.30;101605.75;5555372;32;34379;-56
2023/12/15 09:25:30;;;;;;;9.00;6.57;;;;;;;8.51;77.01;101603.84;5557918;32;34336;-56
2023/12/15 09:28:33;;;;;;;9.95;6.07;;;;;;;8.59;78.32;101610.66;5548195;32;33987;-56
2023/12/15 09:31:36;;;;;;;10.98;7.05;;;;;;;8.64;78.11;101619.59;5547842;32;34437;-56
2023/12/15 09:34:38;;;;;;;10.13;7.25;;;;;;;8.62;78.55;101623.56;5558119;32;34216;-56
2023/12/15 09:37:41;;;;;;;9.43;7.20;;;;;;;8.81;78.40;101630.37;5562565;32;33569;-56
2023/12/15 09:40:45;;;;;;;11.85;7.40;;;;;;;8.78;79.25;101638.84;5565654;32;33653;-56
2023/12/15 09:43:47;;;;;;;8.70;6.68;;;;;;;8.72;76.20;101645.16;5561189;32;33660;-56
2023/12/15 09:46:50;;;;;;;10.48;7.47;;;;;;;8.61;75.04;101645.97;5558903;32;34306;-57
2023/12/15 09:49:55;;;;;;;11.50;7.53;;;;;;;8.70;76.89;101642.69;5560291;32;33657;-56
2023/12/15 09:52:58;;;;;;;9.10;6.93;;;;;;;8.50;75.83;101652.16;5565455;32;33705;-56
2023/12/15 09:56:00;;;;;;;9.32;6.72;;;;;;;8.50;76.15;101652.97;5568500;32;34385;-56
2023/12/15 09:59:03;;;;;;;10.23;7.07;;;;;;;8.73;77.02;101651.31;5566963;32;33585;-56
2023/12/15 10:02:05;;;;;;;9.00;6.50;;;;;;;8.81;86.65;101654.44;5563548;32;33971;-56
2023/12/15 10:05:09;;;;;;;11.38;7.10;;;;;;;8.84;78.08;101661.13;5565837;32;33529;-56
2023/12/15 10:08:12;;;;;;;9.95;6.80;;;;;;;8.74;78.88;101672.47;5566513;32;33727;-56
2023/12/15 10:11:16;;;;;;;8.93;7.28;;;;;;;8.84;76.42;101671.84;5566489;32;33256;-56
2023/12/15 10:14:19;;;;;;;9.48;7.05;;;;;;;8.98;77.13;101675.88;5568465;32;34339;-56
2023/12/15 10:17:22;;;;;;;8.90;6.50;;;;;;;8.91;75.61;101683.25;5569390;32;34082;-55
2023/12/15 10:20:25;;;;;;;9.27;7.20;;;;;;;8.74;76.29;101687.66;5567212;32;34038;-56
2023/12/15 10:23:29;;;;;;;11.18;6.62;;;;;;;8.75;76.11;101692.00;5567044;32;33605;-56
2023/12/15 10:26:32;;;;;;;10.88;7.68;;;;;;;8.58;76.09;101695.38;5564820;32;34338;-56
2023/12/15 10:29:38;;;;;;;11.02;7.40;;;;;;;8.50;75.05;101700.25;5568183;32;33814;-56
2023/12/15 10:32:40;;;;;;;9.15;7.35;;;;;;;8.44;75.21;101699.34;5566815;32;34166;-56
2023/12/15 10:35:47;;;;;;;9.88;7.32;;;;;;;8.47;75.45;101706.88;5564477;32;33621;-56
2023/12/15 10:38:50;;;;;;;9.82;7.35;;;;;;;8.60;79.11;101706.62;5567340;32;34304;-56
2023/12/15 10:41:53;;;;;;;8.60;6.62;;;;;;;8.47;75.72;101710.38;5567960;32;33623;-56
2023/12/15 10:44:58;;;;;;;8.85;7.50;;;;;;;8.55;73.82;101709.22;5565512;32;34440;-57
2023/12/15 10:48:01;;;;;;;9.68;6.20;;;;;;;8.16;75.40;101705.34;5566803;32;33769;-56
2023/12/15 10:51:05;;;;;;;10.20;7.65;;;;;;;8.10;75.12;101717.75;5565637;32;33833;-56
2023/12/15 10:54:09;;;;;;;9.43;7.00;;;;;;;8.17;76.53;101717.66;5560987;32;33365;-56
2023/12/15 10:57:11;;;;;;;11.30;7.22;;;;;;;8.27;76.17;101717.09;5567077;32;34294;-56
2023/12/15 11:00:17;;;;;;;12.02;7.60;;;;;;;8.36;75.87;101721.84;5568639;32;33323;-56
2023/12/15 11:03:20;;;;;;;11.60;7.70;;;;;;;8.45;75.55;101725.84;5566166;32;33615;-56
2023/12/15 11:06:40;;;;;;;11.88;7.68;;;;;;;8.41;77.14;101739.88;5568460;32;33340;-56
2023/12/15 11:09:43;;;;;;;10.18;8.20;;;;;;;8.47;76.14;101737.09;5550358;32;34296;-56
2023/12/15 11:12:52;;;;;;;12.13;7.75;;;;;;;8.41;75.31;101738.03;5561386;32;33671;-58
2023/12/15 11:15:55;;;;;;;12.43;8.57;;;;;;;8.61;83.92;101739.53;5559313;32;34297;-56
2023/12/15 11:18:59;;;;;;;12.70;8.25;;;;;;;8.61;76.06;101734.19;5564041;32;33743;-56
2023/12/15 11:22:06;;;;;;;12.35;8.50;;;;;;;8.53;74.88;101738.03;5567676;32;33682;-56
2023/12/15 11:25:18;;;;;;;12.23;8.38;;;;;;;8.51;76.95;101736.62;5554154;32;33754;-56
2023/12/15 11:28:20;;;;;;;13.40;8.85;;;;;;;8.54;76.17;101739.66;5564706;32;33760;-56
2023/12/15 11:31:24;;;;;;;10.68;7.90;;;;;;;8.60;76.09;101738.72;5562393;32;33791;-56
2023/12/15 11:34:40;;;;;;;12.73;8.27;;;;;;;8.55;76.03;101748.50;5564166;32;33394;-56
2023/12/15 11:37:42;;;;;;;13.82;7.55;;;;;;;8.52;75.32;101751.63;5561867;32;33752;-57
2023/12/15 11:40:45;;;;;;;10.90;7.68;;;;;;;8.78;82.77;101745.00;5556695;32;33790;-56
2023/12/15 11:43:48;;;;;;;12.50;8.02;;;;;;;8.66;76.13;101759.16;5559678;32;33694;-57
2023/12/15 11:46:52;;;;;;;11.25;7.87;;;;;;;8.76;74.58;101758.59;5552756;32;34361;-56
2023/12/15 11:49:55;;;;;;;10.70;7.60;;;;;;;8.72;73.59;101754.75;5563859;32;34362;-56
2023/12/15 11:52:57;;;;;;;10.48;7.68;;;;;;;8.77;82.27;101759.41;5555712;32;34415;-56
2023/12/15 11:56:04;;;;;;;11.30;8.27;;;;;;;8.77;76.22;101762.06;5563515;32;33675;-56
2023/12/15 11:59:07;;;;;;;11.52;7.60;;;;;;;9.02;82.58;101765.31;5567115;31;34639;-56
2023/12/15 12:02:16;;;;;;;12.30;7.90;;;;;;;9.13;83.02;101775.16;5558859;32;33657;-56
2023/12/15 12:05:20;;;;;;;11.43;8.18;;;;;;;9.40;88.48;101771.94;5565651;32;33300;-56
2023/12/15 12:08:23;;;;;;;14.95;8.35;;;;;;;9.60;97.95;101769.66;5566188;31;33631;-56
2023/12/15 12:11:26;;;;;;;14.35;8.80;;;;;;;9.52;83.69;101770.03;5560389;32;34254;-56
2023/12/15 12:14:28;;;;;;;11.23;8.05;;;;;;;9.52;74.76;101777.25;5560002;32;33769;-56
2023/12/15 12:17:32;;;;;;;12.37;8.50;;;;;;;9.58;98.34;101776.31;5551993;32;33772;-57
2023/12/15 12:20:34;;;;;;;12.15;8.00;;;;;;;9.61;96.03;101775.84;5560566;32;33649;-56
2023/12/15 12:23:37;;;;;;;9.75;7.75;;;;;;;9.81;94.13;101776.19;5566799;32;34523;-56
2023/12/15 12:26:50;;;;;;;10.30;8.52;;;;;;;9.75;81.50;101774.47;5566900;32;34304;-57
2023/12/15 12:29:52;;;;;;;10.70;7.97;;;;;;;9.69;73.05;101783.47;5562182;32;33692;-56
2023/12/15 12:32:55;;;;;;;13.73;7.70;;;;;;;9.60;86.61;101792.94;5562618;32;33692;-56
2023/12/15 12:35:57;;;;;;;11.00;8.10;;;;;;;9.78;87.55;101798.09;5566851;32;33707;-56
2023/12/15 12:38:59;;;;;;;13.25;7.85;;;;;;;9.71;73.29;101794.75;5566687;32;33678;-56
2023/12/15 12:42:02;;;;;;;12.07;8.13;;;;;;;9.51;71.63;101802.41;5561212;32;33338;-56
2023/12/15 12:45:06;;;;;;;13.15;7.28;;;;;;;9.29;70.34;101813.75;5566764;32;34133;-56
2023/12/15 12:48:09;;;;;;;10.23;6.53;;;;;;;9.05;70.47;101817.53;5562021;32;33624;-57
2023/12/15 12:51:11;;;;;;;9.73;7.03;;;;;;;9.08;69.75;101817.06;5557563;32;33800;-56
2023/12/15 12:54:14;;;;;;;9.73;6.80;;;;;;;9.21;69.79;101821.34;5557311;32;33813;-56
2023/12/15 12:57:16;;;;;;;11.57;7.35;;;;;;;9.32;83.23;101820.50;5562204;32;33383;-57
2023/12/15 13:00:19;;;;;;;12.30;7.45;;;;;;;9.63;87.76;101824.59;5548537;32;33267;-56
2023/12/15 13:03:22;;;;;;;12.20;7.93;;;;;;;9.41;69.60;101827.09;5548884;32;33270;-56
2023/12/15 13:06:24;;;;;;;44.15;8.73;;;;;;;9.33;68.67;101825.59;5562778;32;33315;-56
2023/12/15 13:09:27;;;;;;;13.13;8.50;;;;;;;9.49;72.13;101832.09;5558452;32;33285;-56
2023/12/15 13:12:29;;;;;;;10.55;7.55;;;;;;;9.43;69.51;101842.91;5558819;32;32652;-56
2023/12/15 13:15:31;;;;;;;10.70;7.70;;;;;;;9.29;66.94;101847.72;5562206;32;34302;-57
2023/12/15 13:18:35;;;;;;;11.50;8.32;;;;;;;9.09;65.98;101866.81;5563229;32;34378;-56
2023/12/15 13:21:38;;;;;;;12.02;7.22;;;;;;;9.06;67.82;101861.94;5563532;32;33995;-56
2023/12/15 13:24:42;;;;;;;12.82;7.97;;;;;;;9.15;67.72;101868.56;5555310;32;34423;-56
2023/12/15 13:27:58;;;;;;;14.77;8.23;;;;;;;9.12;67.66;101871.72;5550571;32;33755;-56
2023/12/15 13:31:05;;;;;;;12.07;8.00;;;;;;;9.16;67.51;101872.88;5550130;32;33613;-56
2023/12/15 13:34:07;;;;;;;13.00;8.20;;;;;;;9.25;66.39;101881.37;5550744;32;34433;-56
2023/12/15 13:37:10;;;;;;;10.70;7.60;;;;;;;9.18;66.12;101893.00;5565470;32;33946;-56
2023/12/15 13:40:12;;;;;;;15.55;8.15;;;;;;;9.27;66.06;101898.81;5567075;32;33899;-57
2023/12/15 13:43:15;;;;;;;11.80;7.57;;;;;;;9.12;64.64;101899.28;5569482;32;33182;-56
2023/12/15 13:46:19;;;;;;;11.55;7.93;;;;;;;9.04;64.93;101904.16;5566686;32;33816;-56
2023/12/15 13:49:22;;;;;;;12.75;7.00;;;;;;;9.10;67.61;101903.22;5567639;32;33635;-56
2023/12/15 13:52:24;;;;;;;12.37;7.85;;;;;;;9.30;80.69;101914.38;5567791;32;33704;-56
2023/12/15 13:55:26;;;;;;;13.77;7.87;;;;;;;9.42;64.19;101917.06;5567588;32;33646;-56
2023/12/15 13:58:29;;;;;;;14.02;8.07;;;;;;;9.41;68.81;101931.50;5565745;32;33653;-56
2023/12/15 14:01:31;;;;;;;11.73;7.75;;;;;;;9.24;67.42;101934.06;5564793;32;33803;-57
2023/12/15 14:04:34;;;;;;;15.55;7.37;;;;;;;9.06;64.73;101934.16;5558141;32;34275;-56
2023/12/15 14:07:36;;;;;;;11.38;7.45;;;;;;;8.90;63.86;101944.50;5566673;32;33267;-56
2023/12/15 14:10:39;;;;;;;11.73;8.48;;;;;;;8.76;63.96;101940.41;5567889;32;33613;-56
2023/12/15 14:13:41;;;;;;;15.40;8.30;;;;;;;8.68;72.14;101944.22;5550542;32;34454;-56
2023/12/15 14:16:45;;;;;;;14.38;8.07;;;;;;;9.03;82.39;101956.84;5556035;32;33719;-56
2023/12/15 14:19:50;;;;;;;14.15;7.87;;;;;;;9.06;66.84;101952.91;5564682;32;34049;-55
2023/12/15 14:22:54;;;;;;;10.93;7.00;;;;;;;8.87;62.99;101962.84;5553640;32;33795;-56
2023/12/15 14:25:56;;;;;;;12.55;7.60;;;;;;;8.99;69.86;101963.69;5563200;32;33783;-56
2023/12/15 14:28:59;;;;;;;10.07;7.03;;;;;;;8.81;66.16;101955.78;5564819;32;34256;-56
2023/12/15 14:32:01;;;;;;;10.60;6.72;;;;;;;8.79;66.24;101966.69;5561308;32;34007;-57
2023/12/15 14:35:04;;;;;;;10.40;6.70;;;;;;;8.66;64.95;101970.38;5563103;32;33628;-56
2023/12/15 14:38:08;;;;;;;10.70;7.15;;;;;;;8.58;62.34;101973.38;5559869;32;34233;-56
2023/12/15 14:41:11;;;;;;;11.70;7.40;;;;;;;8.70;63.58;101987.56;5561951;32;33592;-56
2023/12/15 14:44:13;;;;;;;11.80;6.95;;;;;;;8.56;61.06;101986.16;5566377;32;33346;-56
2023/12/15 14:47:16;;;;;;;10.32;6.68;;;;;;;8.43;62.93;102002.38;5555561;32;33326;-56
2023/12/15 14:50:18;;;;;;;10.48;6.97;;;;;;;8.35;64.22;102002.66;5564447;32;33635;-57
2023/12/15 14:53:21;;;;;;;11.73;6.60;;;;;;;8.26;63.58;102014.69;5559462;32;34046;-56
2023/12/15 14:56:23;;;;;;;8.57;6.07;;;;;;;8.20;64.52;102014.53;5563697;32;34335;-57
2023/12/15 14:59:26;;;;;;;10.70;6.18;;;;;;;8.58;68.21;102018.81;5562014;32;33597;-56
2023/12/15 15:02:29;;;;;;;9.00;6.30;;;;;;;8.39;61.29;102034.06;5564202;32;33735;-60
2023/12/15 15:05:32;;;;;;;10.27;6.18;;;;;;;8.58;63.04;102032.19;5566396;32;33634;-56
2023/12/15 15:08:34;;;;;;;11.57;6.37;;;;;;;8.52;62.34;102034.94;5554717;32;34364;-56
2023/12/15 15:11:37;;;;;;;8.45;5.45;;;;;;;8.59;59.76;102038.34;5554350;32;33595;-55
2023/12/15 15:14:39;;;;;;;9.02;5.62;;;;;;;7.90;60.61;102043.03;5553939;32;33355;-56
2023/12/15 15:17:42;;;;;;;10.40;6.15;;;;;;;7.93;61.65;102046.06;5555172;32;33854;-56
2023/12/15 15:20:44;;;;;;;8.82;5.82;;;;;;;7.87;60.65;102057.63;5555403;32;34181;-56
2023/12/15 15:23:47;;;;;;;11.23;6.18;;;;;;;7.92;60.36;102060.47;5559087;32;33695;-56
2023/12/15 15:26:50;;;;;;;8.73;5.30;;;;;;;8.10;62.71;102069.53;5559692;32;33630;-56
2023/12/15 15:29:53;;;;;;;7.60;4.95;;;;;;;7.98;59.11;102074.81;5558931;32;33864;-56
2023/12/15 15:32:56;;;;;;;6.97;4.72;;;;;;;8.22;61.05;102073.09;5567294;32;33686;-56
2023/12/15 15:36:00;;;;;;;8.00;5.15;;;;;;;8.41;61.53;102073.91;5568375;32;34441;-56
2023/12/15 15:39:04;;;;;;;8.23;5.15;;;;;;;8.33;69.78;102080.34;5555369;32;34422;-56
2023/12/15 15:42:07;;;;;;;8.63;5.28;;;;;;;8.42;65.78;102084.41;5559823;32;35090;-56
2023/12/15 15:45:09;;;;;;;8.07;5.15;;;;;;;8.22;56.90;102089.12;5560413;32;32485;-56
2023/12/15 15:48:12;;;;;;;9.95;5.12;;;;;;;7.88;59.23;102093.16;5564982;32;34027;-56
2023/12/15 15:51:24;;;;;;;10.05;5.10;;;;;;;7.83;58.34;102098.34;5554486;32;33287;-56
2023/12/15 15:54:27;;;;;;;7.68;4.57;;;;;;;7.76;57.71;102088.53;5555444;32;33075;-56
2023/12/15 15:57:29;;;;;;;8.38;4.90;;;;;;;7.76;59.73;102099.22;5559544;32;33705;-56
2023/12/15 16:00:31;;;;;;;7.55;4.97;;;;;;;7.60;61.36;102089.09;5557727;32;33712;-56
2023/12/15 16:03:34;;;;;;;7.50;5.05;;;;;;;7.48;60.56;102104.19;5554524;32;33567;-56
2023/12/15 16:06:36;;;;;;;8.40;5.00;;;;;;;7.70;64.42;102117.97;5563267;32;33756;-56
2023/12/15 16:09:39;;;;;;;7.20;4.22;;;;;;;7.53;72.86;102118.50;5558409;32;34349;-56
2023/12/15 16:12:43;;;;;;;10.60;5.43;;;;;;;7.57;60.91;102118.06;5552599;32;33704;-56
2023/12/15 16:15:45;;;;;;;5.75;3.85;;;;;;;7.35;57.78;102120.28;5557326;32;33641;-56
2023/12/15 16:18:48;;;;;;;9.30;4.10;;;;;;;7.28;56.65;102125.66;5558190;32;34236;-56
2023/12/15 16:21:51;;;;;;;8.38;3.37;;;;;;;7.33;66.50;102135.69;5562172;32;33286;-56
2023/12/15 16:24:53;;;;;;;5.97;3.28;;;;;;;7.39;56.10;102145.53;5553364;32;34388;-56
2023/12/15 16:27:56;;;;;;;6.90;3.58;;;;;;;7.39;57.39;102162.34;5563225;32;33504;-56
2023/12/15 16:30:58;;;;;;;6.72;3.30;;;;;;;7.32;53.21;102161.56;5553951;32;33769;-56
2023/12/15 16:34:02;;;;;;;5.40;3.08;;;;;;;7.51;63.58;102168.59;5557687;32;34348;-56
2023/12/15 16:37:04;;;;;;;5.25;3.10;;;;;;;7.55;54.24;102182.34;5554902;32;35320;-56
2023/12/15 16:40:08;;;;;;;5.97;3.25;;;;;;;7.30;51.77;102179.63;5552222;32;33675;-56
2023/12/15 16:43:10;;;;;;;5.15;3.30;;;;;;;7.37;52.05;102185.75;5556613;32;33623;-56
2023/12/15 16:46:12;;;;;;;6.15;3.42;;;;;;;7.32;55.22;102188.25;5558200;32;33631;-56
2023/12/15 16:49:15;;;;;;;6.97;3.65;;;;;;;7.44;63.68;102193.72;5559265;32;34230;-56
2023/12/15 16:52:17;;;;;;;6.37;3.87;;;;;;;7.40;53.85;102204.00;5557195;32;33732;-56
2023/12/15 16:55:21;;;;;;;5.25;3.22;;;;;;;7.31;53.48;102202.59;5559012;32;32405;-56
2023/12/15 16:58:23;;;;;;;4.60;2.83;;;;;;;7.24;53.38;102215.16;5560288;32;33710;-57
2023/12/15 17:01:26;;;;;;;6.65;3.30;;;;;;;7.17;51.65;102215.19;5563041;32;33779;-57
2023/12/15 17:04:29;;;;;;;7.75;4.32;;;;;;;7.04;55.86;102225.91;5564486;32;34390;-56
2023/12/15 17:07:32;;;;;;;5.68;3.92;;;;;;;7.06;59.65;102229.19;5565503;32;34301;-56
2023/12/15 17:10:34;;;;;;;7.22;4.22;;;;;;;7.05;53.35;102235.53;5566765;32;34439;-56
2023/12/15 17:13:37;;;;;;;7.22;3.90;;;;;;;7.03;53.84;102237.63;5567893;32;33642;-56
2023/12/15 17:16:39;;;;;;;7.82;4.35;;;;;;;7.20;67.22;102230.78;5550920;32;33752;-57
2023/12/15 17:19:42;;;;;;;6.45;3.80;;;;;;;7.14;58.63;102242.28;5549491;32;33657;-56
2023/12/15 17:22:45;;;;;;;5.62;3.80;;;;;;;7.09;66.92;102255.44;5566577;32;33693;-56
2023/12/15 17:25:47;;;;;;;5.22;3.58;;;;;;;6.99;58.43;102258.56;5567206;32;34402;-56
2023/12/15 17:28:49;;;;;;;6.05;3.80;;;;;;;7.00;58.78;102270.84;5567164;32;33642;-57
2023/12/15 17:31:53;;;;;;;5.18;3.40;;;;;;;6.97;62.52;102276.59;5556475;32;33888;-56
2023/12/15 17:34:55;;;;;;;5.97;3.33;;;;;;;7.02;73.86;102281.31;5555936;32;33701;-57
2023/12/15 17:37:58;;;;;;;7.40;3.70;;;;;;;6.88;57.75;102283.19;5556310;32;33667;-56
2023/12/15 17:41:00;;;;;;;6.28;4.07;;;;;;;7.07;63.16;102290.31;5556897;32;34459;-56
2023/12/15 17:44:02;;;;;;;7.82;4.60;;;;;;;7.05;57.33;102287.06;5551357;32;34394;-56
2023/12/15 17:47:05;;;;;;;6.82;4.20;;;;;;;7.02;70.15;102292.81;5552800;32;33745;-56
2023/12/15 17:50:08;;;;;;;8.02;4.65;;;;;;;7.14;60.75;102306.28;5560485;32;33662;-56
2023/12/15 17:53:10;;;;;;;8.60;5.03;;;;;;;7.01;55.84;102314.31;5554474;32;33773;-56
2023/12/15 17:56:13;;;;;;;10.32;7.93;;;;;;;7.07;56.18;102316.97;5558815;32;33611;-56
2023/12/15 17:59:15;;;;;;;6.60;4.30;;;;;;;6.92;68.75;102319.09;5550594;32;33711;-56
2023/12/15 18:02:17;;;;;;;8.80;4.85;;;;;;;6.93;71.84;102322.56;5547641;32;33870;-56
2023/12/15 18:05:21;;;;;;;7.28;4.78;;;;;;;6.80;62.58;102318.06;5547959;32;33613;-56
2023/12/15 18:08:23;;;;;;;9.25;4.87;;;;;;;7.00;90.45;102320.69;5563605;32;32673;-56
2023/12/15 18:11:27;;;;;;;8.70;5.00;;;;;;;7.04;62.82;102337.91;5569797;32;33619;-56
2023/12/15 18:14:29;;;;;;;7.00;4.87;;;;;;;6.93;79.82;102341.22;5569767;32;33827;-56
2023/12/15 18:17:32;;;;;;;6.95;4.97;;;;;;;6.77;62.90;102337.12;5569258;32;33677;-56
2023/12/15 18:20:35;;;;;;;8.73;5.60;;;;;;;6.69;64.23;102350.66;5569783;32;33718;-56
2023/12/15 18:23:38;;;;;;;11.68;7.90;;;;;;;6.64;61.68;102358.47;5569848;32;34365;-56
2023/12/15 18:26:41;;;;;;;11.40;7.28;;;;;;;6.42;63.73;102365.81;5562548;32;33727;-56
2023/12/15 18:29:47;;;;;;;;;;;;;;;6.08;67.00;102376.44;5569639;32;33841;-56
2023/12/15 18:32:49;;;;;;;15.20;8.60;;;;;;;5.88;71.70;102378.19;5559508;32;33610;-55
2023/12/15 18:35:52;;;;;;;13.57;8.70;;;;;;;5.88;85.78;102373.69;5566281;32;34321;-55
2023/12/15 18:38:54;;;;;;;18.25;8.85;;;;;;;5.80;75.87;102378.38;5558213;32;34306;-56
2023/12/15 18:41:56;;;;;;;14.60;8.02;;;;;;;5.70;92.12;102378.75;5555809;32;33661;-56
2023/12/15 18:44:58;;;;;;;11.23;8.15;;;;;;;5.78;73.48;102383.06;5569296;32;33846;-56
2023/12/15 18:48:02;;;;;;;14.80;9.00;;;;;;;5.76;86.88;102391.25;5569386;32;33799;-56
2023/12/15 18:51:07;;;;;;;13.25;8.75;;;;;;;5.51;87.89;102396.25;5569026;32;33651;-56
2023/12/15 18:54:13;;;;;;;13.93;8.63;;;;;;;5.37;73.37;102386.56;5557123;32;33715;-56
2023/12/15 18:57:15;;;;;;;13.18;8.85;;;;;;;5.48;70.89;102401.97;5556371;32;33745;-56
2023/12/15 19:00:18;;;;;;;15.20;9.25;;;;;;;5.34;70.58;102410.88;5554567;32;35017;-56
2023/12/15 19:03:23;;;;;;;23.95;11.25;;;;;;;5.18;79.88;102404.84;5564664;32;33813;-56
2023/12/15 19:06:26;;;;;;;16.73;9.45;;;;;;;5.24;73.57;102415.72;5557194;32;33704;-56
2023/12/15 19:09:28;;;;;;;17.95;10.18;;;;;;;5.34;96.92;102400.25;5556610;32;33851;-56
2023/12/15 19:12:32;;;;;;;14.23;9.75;;;;;;;5.16;84.89;102411.38;5557302;32;33621;-56
2023/12/15 19:15:35;;;;;;;17.83;9.77;;;;;;;5.03;93.52;102406.78;5555513;32;33637;-56